Time;durP1;ratioP1;P1;durP2;ratioP2;P2;SDS_P1;SDS_P2;PMS_P1;PMS_P2;Temp;Humidity;BMP_temperature;BMP_pressure;BME280_temperature;BME280_humidity;BME280_pressure;Samples;Min_cycle;Max_cycle;Signal;HPM_P1;HPM_P2
2022/10/01 00:01:15;;;;;;;78.22;26.20;;;11.90;99.90;;;;;;5027040;28;20165;-85
2022/10/01 00:03:41;;;;;;;78.18;30.85;;;11.90;99.90;;;;;;5027633;28;20245;-85
2022/10/01 00:06:16;;;;;;;76.68;35.88;;;11.90;99.90;;;;;;5027263;28;20253;-84
2022/10/01 00:08:45;;;;;;;75.05;28.45;;;11.90;99.90;;;;;;5026769;28;20181;-84
2022/10/01 00:11:14;;;;;;;76.82;34.17;;;12.00;99.90;;;;;;5026931;28;20168;-85
2022/10/01 00:13:42;;;;;;;79.85;38.80;;;12.00;99.90;;;;;;5026235;28;20161;-85
2022/10/01 00:16:10;;;;;;;78.18;36.47;;;12.00;99.90;;;;;;5028001;28;20184;-83
2022/10/01 00:18:41;;;;;;;75.75;27.08;;;12.10;99.90;;;;;;5027526;28;20182;-85
2022/10/01 00:21:09;;;;;;;74.15;29.20;;;12.10;99.90;;;;;;5027964;28;20670;-85
2022/10/01 00:23:35;;;;;;;80.15;30.65;;;12.10;99.90;;;;;;5010901;28;20182;-84
2022/10/01 00:26:17;;;;;;;78.05;31.85;;;12.10;99.90;;;;;;5028763;28;20255;-85
2022/10/01 00:28:45;;;;;;;77.18;33.17;;;12.20;99.90;;;;;;5027755;28;20178;-85
2022/10/01 00:31:13;;;;;;;82.90;45.38;;;12.20;99.90;;;;;;5025382;28;20161;-85
2022/10/01 00:33:38;;;;;;;85.45;52.42;;;12.30;99.90;;;;;;5005072;28;20177;-86
2022/10/01 00:36:06;;;;;;;76.00;32.90;;;12.20;99.90;;;;;;5023844;28;20525;-86
2022/10/01 00:38:32;;;;;;;71.55;14.45;;;12.10;99.90;;;;;;5023298;28;20203;-85
2022/10/01 00:40:58;;;;;;;72.03;11.65;;;12.10;99.90;;;;;;5020244;28;20279;-85
2022/10/01 00:43:30;;;;;;;69.63;11.38;;;12.10;99.90;;;;;;5018904;28;20186;-85
2022/10/01 00:46:34;;;;;;;70.63;13.02;;;12.10;99.90;;;;;;5002100;28;20166;-85
2022/10/01 00:49:09;;;;;;;72.78;13.98;;;12.10;99.90;;;;;;5007911;28;20673;-85
2022/10/01 00:51:45;;;;;;;71.90;17.25;;;12.10;99.90;;;;;;5000477;28;20170;-84
2022/10/01 00:54:36;;;;;;;73.40;22.83;;;12.10;99.90;;;;;;5017723;28;20238;-86
2022/10/01 00:57:04;;;;;;;75.95;30.15;;;12.10;99.90;;;;;;5016280;28;20224;-85
2022/10/01 00:59:30;;;;;;;77.25;37.55;;;12.10;99.90;;;;;;5016630;28;20261;-86
2022/10/01 01:01:56;;;;;;;80.20;37.43;;;12.00;99.90;;;;;;5016935;28;20262;-86
2022/10/01 01:04:22;;;;;;;78.77;42.50;;;12.00;99.90;;;;;;5018039;28;20399;-86
2022/10/01 01:06:57;;;;;;;79.90;44.63;;;11.90;99.90;;;;;;5017653;28;20172;-86
2022/10/01 01:09:35;;;;;;;81.22;42.60;;;11.90;99.90;;;;;;5018151;28;20679;-86
2022/10/01 01:12:18;;;;;;;77.13;37.63;;;11.90;99.90;;;;;;5019095;28;20181;-86
2022/10/01 01:14:58;;;;;;;78.10;35.30;;;12.00;99.90;;;;;;5018070;28;20161;-85
2022/10/01 01:17:39;;;;;;;75.63;29.80;;;11.90;99.90;;;;;;5000783;28;20656;-86
2022/10/01 01:20:16;;;;;;;72.60;24.13;;;11.80;99.90;;;;;;5018094;28;20151;-85
2022/10/01 01:22:49;;;;;;;70.80;18.40;;;11.80;99.90;;;;;;5019054;28;20182;-86
2022/10/01 01:25:32;;;;;;;73.60;20.95;;;11.80;99.90;;;;;;5001620;28;20166;-86
2022/10/01 01:27:57;;;;;;;72.72;16.27;;;11.70;99.90;;;;;;5000038;28;20193;-86
2022/10/01 01:30:23;;;;;;;72.67;15.87;;;11.70;99.90;;;;;;5020749;28;20177;-85
2022/10/01 01:33:03;;;;;;;70.27;13.90;;;11.70;99.90;;;;;;5004483;28;20676;-87
2022/10/01 01:35:42;;;;;;;69.97;13.05;;;11.70;99.90;;;;;;5022124;28;20154;-87
2022/10/01 01:38:18;;;;;;;72.88;14.48;;;11.60;99.90;;;;;;5022327;28;20234;-86
2022/10/01 01:40:46;;;;;;;70.13;13.32;;;11.60;99.90;;;;;;5022833;28;20154;-84
2022/10/01 01:43:19;;;;;;;69.70;14.10;;;11.50;99.90;;;;;;5021261;28;20200;-86
2022/10/01 01:45:48;;;;;;;70.32;13.23;;;11.50;99.90;;;;;;5020952;28;20146;-86
2022/10/01 01:48:14;;;;;;;77.47;15.00;;;11.50;99.90;;;;;;5020548;28;20214;-86
2022/10/01 01:50:47;;;;;;;73.38;16.52;;;11.50;99.90;;;;;;5003084;28;20166;-87
2022/10/01 01:53:14;;;;;;;71.60;14.40;;;11.50;99.90;;;;;;5020998;28;20266;-85
2022/10/01 01:55:40;;;;;;;72.97;21.08;;;11.50;99.90;;;;;;5022175;28;20173;-86
2022/10/01 01:58:07;;;;;;;72.43;17.98;;;11.40;99.90;;;;;;5002738;28;20198;-86
2022/10/01 02:00:32;;;;;;;73.22;18.77;;;11.50;99.90;;;;;;5021212;28;20154;-86
2022/10/01 02:02:59;;;;;;;75.72;26.20;;;11.50;99.90;;;;;;5003794;28;20681;-85
2022/10/01 02:05:34;;;;;;;75.17;23.57;;;11.40;99.90;;;;;;5002226;28;20176;-85
2022/10/01 02:08:13;;;;;;;73.68;22.33;;;11.40;99.90;;;;;;5020094;28;20688;-85
2022/10/01 02:10:48;;;;;;;77.28;28.15;;;11.40;99.90;;;;;;5019235;28;20594;-86
2022/10/01 02:13:22;;;;;;;74.30;24.38;;;11.40;99.90;;;;;;5020127;28;20585;-86
2022/10/01 02:16:04;;;;;;;75.35;24.92;;;11.40;99.90;;;;;;5019701;28;20152;-85
2022/10/01 02:18:45;;;;;;;75.80;30.02;;;11.40;99.90;;;;;;5019648;28;20280;-86
2022/10/01 02:21:22;;;;;;;73.18;24.55;;;11.40;99.90;;;;;;5002706;28;20166;-86
2022/10/01 02:24:06;;;;;;;76.50;32.28;;;11.40;99.90;;;;;;5020399;28;20534;-86
2022/10/01 02:26:34;;;;;;;75.18;27.63;;;11.40;99.90;;;;;;5019315;28;20233;-86
2022/10/01 02:29:05;;;;;;;80.40;39.97;;;11.40;99.90;;;;;;5019502;28;20188;-86
2022/10/01 02:31:31;;;;;;;81.88;42.97;;;11.40;99.90;;;;;;5020090;28;20143;-86
2022/10/01 02:34:01;;;;;;;77.07;34.25;;;11.40;99.90;;;;;;5019849;28;20178;-85
2022/10/01 02:36:29;;;;;;;80.65;41.78;;;11.50;99.90;;;;;;5003530;28;20634;-86
2022/10/01 02:38:57;;;;;;;76.72;34.83;;;11.40;99.90;;;;;;5019208;28;20190;-86
2022/10/01 02:41:29;;;;;;;78.72;39.47;;;11.50;99.90;;;;;;5018878;28;20170;-86
2022/10/01 02:43:59;;;;;;;83.47;54.03;;;11.50;99.90;;;;;;5018819;28;20182;-86
2022/10/01 02:46:50;;;;;;;79.45;44.13;;;11.50;99.90;;;;;;5018990;28;20248;-87
2022/10/01 02:49:19;;;;;;;81.47;48.38;;;11.50;99.90;;;;;;4993018;28;20592;-85
2022/10/01 02:51:45;;;;;;;83.55;41.05;;;11.40;99.90;;;;;;4999943;28;20174;-86
2022/10/01 02:54:30;;;;;;;81.37;41.80;;;11.50;99.90;;;;;;5001397;28;20193;-86
2022/10/01 02:59:41;;;;;;;76.88;36.30;;;11.50;99.90;;;;;;5017816;28;20184;-85
2022/10/01 03:02:07;;;;;;;78.93;40.63;;;11.50;99.90;;;;;;5018398;28;20194;-85
2022/10/01 03:04:32;;;;;;;85.33;63.07;;;11.50;99.90;;;;;;5019636;28;20194;-85
2022/10/01 03:07:02;;;;;;;78.60;41.27;;;11.40;99.90;;;;;;5001643;28;20412;-86
2022/10/01 03:09:35;;;;;;;77.22;37.47;;;11.50;99.90;;;;;;5002148;28;20280;-86
2022/10/01 03:12:03;;;;;;;79.10;40.50;;;11.50;99.90;;;;;;5018577;28;20154;-86
2022/10/01 03:14:28;;;;;;;75.68;33.33;;;11.50;99.90;;;;;;5017832;28;20198;-86
2022/10/01 03:16:54;;;;;;;72.27;25.47;;;11.60;99.90;;;;;;5001022;28;20173;-85
2022/10/01 03:19:20;;;;;;;75.40;31.47;;;11.60;99.90;;;;;;5001296;28;20189;-85
2022/10/01 03:21:46;;;;;;;78.23;37.60;;;11.60;99.90;;;;;;5019119;28;20174;-87
2022/10/01 03:24:12;;;;;;;79.80;43.55;;;11.60;99.90;;;;;;5018692;28;20251;-86
2022/10/01 03:26:37;;;;;;;80.07;45.90;;;11.50;99.90;;;;;;5018381;28;20205;-85
2022/10/01 03:29:04;;;;;;;81.93;54.93;;;11.50;99.90;;;;;;5001421;28;20554;-86
2022/10/01 03:31:29;;;;;;;82.57;52.58;;;11.50;99.90;;;;;;4999939;28;20173;-86
2022/10/01 03:33:59;;;;;;;78.47;42.67;;;11.50;99.90;;;;;;5018435;28;20166;-86
2022/10/01 03:36:26;;;;;;;77.57;36.85;;;11.60;99.90;;;;;;5000281;28;20252;-87
2022/10/01 03:38:52;;;;;;;78.20;40.78;;;11.60;99.90;;;;;;5000427;28;20193;-85
2022/10/01 03:41:17;;;;;;;89.80;65.27;;;11.60;99.90;;;;;;5017917;28;20173;-86
2022/10/01 03:43:43;;;;;;;82.23;52.73;;;11.40;99.90;;;;;;5000118;28;20190;-84
2022/10/01 03:46:10;;;;;;;82.77;55.47;;;11.40;99.90;;;;;;5019009;28;20162;-87
2022/10/01 03:48:36;;;;;;;83.05;56.80;;;11.50;99.90;;;;;;5020024;28;20224;-86
2022/10/01 03:51:02;;;;;;;81.40;53.10;;;11.40;99.90;;;;;;5021091;28;20190;-86
2022/10/01 03:53:30;;;;;;;77.82;41.60;;;11.40;99.90;;;;;;5017721;28;20788;-87
2022/10/01 03:55:56;;;;;;;85.88;40.17;;;11.40;99.90;;;;;;5018611;28;20162;-85
2022/10/01 03:58:23;;;;;;;72.35;26.77;;;11.40;99.90;;;;;;5021097;28;20277;-86
2022/10/01 04:00:49;;;;;;;77.05;38.08;;;11.40;99.90;;;;;;5020857;28;20189;-87
2022/10/01 04:03:16;;;;;;;75.13;35.40;;;11.50;99.90;;;;;;5019856;28;20534;-86
2022/10/01 04:05:43;;;;;;;70.10;22.30;;;11.40;99.90;;;;;;5019438;28;20169;-85
2022/10/01 04:08:13;;;;;;;73.38;29.92;;;11.50;99.90;;;;;;5002878;28;20186;-86
2022/10/01 04:10:39;;;;;;;70.88;24.40;;;11.50;99.90;;;;;;5019724;28;20288;-85
2022/10/01 04:13:05;;;;;;;70.55;22.98;;;11.40;99.90;;;;;;5000912;28;20225;-86
2022/10/01 04:15:31;;;;;;;70.20;22.20;;;11.40;99.90;;;;;;5018701;28;20166;-86
2022/10/01 04:17:58;;;;;;;72.23;27.80;;;11.40;99.90;;;;;;5018578;28;20249;-87
2022/10/01 04:20:24;;;;;;;76.75;38.53;;;11.40;99.90;;;;;;5018344;28;20403;-86
2022/10/01 04:22:50;;;;;;;77.93;45.17;;;11.50;99.90;;;;;;5018779;28;20604;-86
2022/10/01 04:25:15;;;;;;;74.70;35.67;;;11.50;99.90;;;;;;5001148;28;20170;-86
2022/10/01 04:27:56;;;;;;;75.13;35.90;;;11.50;99.90;;;;;;5001482;28;20478;-85
2022/10/01 04:30:31;;;;;;;73.50;29.63;;;11.60;99.90;;;;;;5019341;28;20391;-86
2022/10/01 04:32:56;;;;;;;104.30;90.80;;;11.60;99.90;;;;;;5019418;28;20159;-85
2022/10/01 04:35:23;;;;;;;81.73;57.27;;;11.50;99.90;;;;;;5019551;28;20230;-84
2022/10/01 04:38:17;;;;;;;79.43;47.70;;;11.50;99.90;;;;;;5020236;28;20190;-86
2022/10/01 04:40:43;;;;;;;74.20;33.92;;;11.60;99.90;;;;;;5003664;28;20158;-85
2022/10/01 04:43:12;;;;;;;77.37;43.57;;;11.50;99.90;;;;;;5001485;28;20216;-85
2022/10/01 04:45:38;;;;;;;94.32;82.07;;;11.50;99.90;;;;;;5017703;28;20884;-84
2022/10/01 04:48:04;;;;;;;75.35;36.72;;;11.60;99.90;;;;;;4999678;28;20189;-85
2022/10/01 04:50:30;;;;;;;74.50;34.90;;;11.60;99.90;;;;;;5017036;28;20653;-84
2022/10/01 04:52:56;;;;;;;86.18;54.92;;;11.60;99.90;;;;;;5016920;28;20162;-84
2022/10/01 04:55:23;;;;;;;74.50;35.20;;;11.60;99.90;;;;;;5016371;28;20174;-84
2022/10/01 04:57:49;;;;;;;74.65;35.80;;;11.60;99.90;;;;;;5016704;28;20889;-84
2022/10/01 05:00:17;;;;;;;70.63;23.70;;;11.60;99.90;;;;;;5016721;28;20189;-85
2022/10/01 05:02:48;;;;;;;75.20;37.08;;;11.60;99.90;;;;;;5016775;28;20199;-84
2022/10/01 05:05:18;;;;;;;76.68;39.28;;;11.60;99.90;;;;;;5019772;28;20158;-84
2022/10/01 05:07:44;;;;;;;75.05;35.28;;;11.60;99.90;;;;;;5020339;28;20549;-85
2022/10/01 05:10:12;;;;;;;76.40;42.07;;;11.60;99.90;;;;;;5020797;28;20166;-84
2022/10/01 05:12:38;;;;;;;76.60;40.83;;;11.60;99.90;;;;;;5021125;28;20173;-85
2022/10/01 05:15:04;;;;;;;81.00;54.87;;;11.60;99.90;;;;;;5020867;28;20168;-85
2022/10/01 05:17:33;;;;;;;76.60;40.95;;;11.60;99.90;;;;;;5020597;28;20169;-84
2022/10/01 05:19:59;;;;;;;79.05;48.05;;;11.70;99.90;;;;;;5020458;28;20169;-83
2022/10/01 05:22:25;;;;;;;74.25;33.45;;;11.70;99.90;;;;;;5020106;28;20178;-84
2022/10/01 05:24:51;;;;;;;73.90;33.80;;;11.70;99.90;;;;;;5002200;28;20166;-84
2022/10/01 05:27:17;;;;;;;74.80;36.60;;;11.70;99.90;;;;;;5019653;28;20635;-84
2022/10/01 05:29:44;;;;;;;75.32;35.85;;;11.70;99.90;;;;;;5020112;28;20161;-84
2022/10/01 05:32:11;;;;;;;76.38;40.78;;;11.70;99.90;;;;;;5019790;28;20287;-85
2022/10/01 05:34:37;;;;;;;73.05;29.75;;;11.70;99.90;;;;;;5002318;28;20185;-84
2022/10/01 05:37:03;;;;;;;71.40;26.05;;;11.80;99.90;;;;;;5002351;28;20236;-84
2022/10/01 05:39:30;;;;;;;70.82;23.80;;;11.80;99.90;;;;;;5001956;28;20194;-85
2022/10/01 05:42:01;;;;;;;70.50;22.33;;;11.80;99.90;;;;;;5002163;28;20231;-85
2022/10/01 05:44:27;;;;;;;70.15;22.63;;;11.80;99.90;;;;;;5020082;28;20172;-84
2022/10/01 05:46:53;;;;;;;69.90;21.60;;;11.80;99.90;;;;;;5019947;28;20165;-84
2022/10/01 05:49:19;;;;;;;71.93;25.83;;;11.80;99.90;;;;;;5019387;28;20487;-84
2022/10/01 05:51:45;;;;;;;70.63;21.83;;;11.80;99.90;;;;;;5001908;28;20578;-84
2022/10/01 05:54:11;;;;;;;70.10;20.20;;;11.80;99.90;;;;;;5019875;28;20181;-84
2022/10/01 05:56:38;;;;;;;69.72;21.77;;;11.90;99.90;;;;;;5001523;28;20423;-85
2022/10/01 05:59:04;;;;;;;70.90;23.40;;;11.90;99.90;;;;;;5019858;28;20205;-85
2022/10/01 06:01:31;;;;;;;70.47;22.98;;;11.90;99.90;;;;;;5001815;28;20707;-85
2022/10/01 06:03:56;;;;;;;69.10;19.10;;;11.90;99.90;;;;;;5019793;28;20232;-85
2022/10/01 06:06:24;;;;;;;70.40;23.23;;;11.90;99.90;;;;;;5019970;28;20174;-84
2022/10/01 06:08:49;;;;;;;70.38;23.20;;;12.00;99.90;;;;;;5001646;28;20428;-84
2022/10/01 06:11:15;;;;;;;71.20;24.87;;;12.00;99.90;;;;;;5019443;28;20200;-85
2022/10/01 06:13:43;;;;;;;72.47;28.80;;;12.00;99.90;;;;;;5019667;28;20166;-85
2022/10/01 06:16:10;;;;;;;74.38;35.88;;;12.10;99.90;;;;;;5018233;28;20165;-85
2022/10/01 06:18:36;;;;;;;75.55;36.25;;;12.10;99.90;;;;;;5019252;28;20182;-84
2022/10/01 06:21:01;;;;;;;75.30;37.33;;;12.10;99.90;;;;;;5018839;28;20236;-84
2022/10/01 06:23:27;;;;;;;75.27;33.80;;;12.20;99.90;;;;;;5001113;28;20221;-85
2022/10/01 06:25:53;;;;;;;75.90;38.20;;;12.20;99.90;;;;;;5000843;28;20174;-85
2022/10/01 06:28:19;;;;;;;72.67;30.50;;;12.20;99.90;;;;;;5001371;28;20432;-85
2022/10/01 06:30:45;;;;;;;74.13;30.20;;;12.20;99.90;;;;;;5000790;28;20263;-86
2022/10/01 06:33:13;;;;;;;72.47;28.05;;;12.20;99.90;;;;;;5002717;28;20913;-85
2022/10/01 06:35:42;;;;;;;75.70;33.58;;;12.10;99.90;;;;;;5019102;28;20185;-84
2022/10/01 06:38:08;;;;;;;71.22;24.60;;;12.20;99.90;;;;;;5000427;28;20665;-84
2022/10/01 06:40:34;;;;;;;72.57;27.35;;;12.20;99.90;;;;;;5018280;28;20170;-84
2022/10/01 06:43:00;;;;;;;71.05;22.52;;;12.20;99.90;;;;;;5017451;28;20185;-84
2022/10/01 06:45:27;;;;;;;69.10;19.40;;;12.20;99.90;;;;;;5018237;28;20165;-85
2022/10/01 06:48:02;;;;;;;70.07;20.92;;;12.20;99.90;;;;;;4999491;28;20281;-84
2022/10/01 06:50:29;;;;;;;70.20;19.08;;;12.20;99.90;;;;;;5000303;28;20652;-85
2022/10/01 06:52:55;;;;;;;72.57;23.42;;;12.30;99.90;;;;;;5000000;28;20223;-85
2022/10/01 06:55:26;;;;;;;73.07;27.38;;;12.20;99.90;;;;;;5016913;28;20633;-85
2022/10/01 06:58:00;;;;;;;75.68;35.67;;;12.30;99.90;;;;;;5017553;28;20190;-85
2022/10/01 07:00:27;;;;;;;80.75;37.35;;;12.40;99.90;;;;;;5017130;28;20185;-85
2022/10/01 07:02:54;;;;;;;73.25;29.08;;;12.40;99.90;;;;;;4999007;28;20194;-84
2022/10/01 07:05:20;;;;;;;72.00;25.57;;;12.40;99.90;;;;;;5016946;28;20525;-85
2022/10/01 07:07:47;;;;;;;75.47;31.08;;;12.40;99.90;;;;;;4999135;28;20451;-84
2022/10/01 07:10:14;;;;;;;74.32;28.38;;;12.50;99.90;;;;;;5017117;28;20158;-84
2022/10/01 07:12:40;;;;;;;71.28;26.15;;;12.40;99.90;;;;;;5017248;28;20166;-84
2022/10/01 07:15:07;;;;;;;75.00;35.10;;;12.50;99.90;;;;;;5000261;28;20541;-86
2022/10/01 07:17:34;;;;;;;74.83;31.93;;;12.60;99.90;;;;;;5018631;28;20260;-84
2022/10/01 07:20:00;;;;;;;75.30;36.72;;;12.70;99.90;;;;;;5019340;28;20459;-85
2022/10/01 07:22:26;;;;;;;73.80;31.42;;;12.70;99.90;;;;;;5019221;28;20186;-85
2022/10/01 07:24:52;;;;;;;77.77;45.00;;;12.70;99.90;;;;;;5018881;28;20209;-85
2022/10/01 07:27:18;;;;;;;79.10;49.47;;;12.80;99.90;;;;;;5018974;28;20161;-85
2022/10/01 07:29:44;;;;;;;78.78;47.45;;;12.90;99.90;;;;;;5001002;28;20630;-85
2022/10/01 07:32:10;;;;;;;81.00;54.70;;;12.90;99.90;;;;;;5018574;28;20221;-86
2022/10/01 07:34:41;;;;;;;78.70;46.78;;;13.00;99.90;;;;;;5019044;28;20162;-85
2022/10/01 07:37:07;;;;;;;79.25;47.03;;;13.10;99.90;;;;;;5018738;28;20217;-85
2022/10/01 07:39:34;;;;;;;76.23;40.63;;;13.10;99.90;;;;;;5000530;28;20699;-85
2022/10/01 07:41:59;;;;;;;79.87;51.27;;;13.20;99.90;;;;;;5000102;28;20779;-84
2022/10/01 07:44:26;;;;;;;75.47;37.47;;;13.20;99.90;;;;;;5017835;28;20495;-85
2022/10/01 07:46:52;;;;;;;77.77;44.87;;;13.30;99.90;;;;;;5000295;28;20196;-84
2022/10/01 07:49:19;;;;;;;82.00;57.58;;;13.20;99.90;;;;;;4999964;28;20971;-85
2022/10/01 07:51:45;;;;;;;78.63;47.15;;;13.30;99.90;;;;;;5017309;28;20162;-84
2022/10/01 07:54:11;;;;;;;78.07;45.43;;;13.30;99.90;;;;;;5017915;28;20598;-83
2022/10/01 07:56:37;;;;;;;77.17;40.70;;;13.40;99.90;;;;;;5017357;28;20529;-85
2022/10/01 07:59:03;;;;;;;78.10;45.47;;;13.50;99.90;;;;;;5016612;28;20876;-85
2022/10/01 08:01:30;;;;;;;80.07;49.10;;;13.50;99.90;;;;;;4999799;28;20405;-85
2022/10/01 08:03:56;;;;;;;79.47;49.27;;;13.50;99.90;;;;;;5017139;28;20952;-84
2022/10/01 08:06:21;;;;;;;76.70;42.10;;;13.50;99.90;;;;;;5017314;28;20415;-84
2022/10/01 08:08:47;;;;;;;73.77;31.73;;;13.50;99.90;;;;;;5017740;28;20684;-84
2022/10/01 08:11:16;;;;;;;73.47;32.87;;;13.60;99.90;;;;;;5017607;28;20154;-85
2022/10/01 08:13:44;;;;;;;74.50;35.50;;;13.60;99.90;;;;;;4999405;28;20623;-84
2022/10/01 08:16:11;;;;;;;74.97;33.20;;;13.60;99.90;;;;;;5017894;28;20412;-84
2022/10/01 08:18:39;;;;;;;75.20;37.27;;;13.70;99.90;;;;;;5017712;28;20515;-83
2022/10/01 08:21:05;;;;;;;75.47;34.83;;;13.90;99.90;;;;;;4999625;28;20427;-84
2022/10/01 08:23:33;;;;;;;73.83;28.03;;;14.00;99.90;;;;;;5017479;28;20484;-85
2022/10/01 08:26:03;;;;;;;72.10;24.47;;;14.10;99.90;;;;;;4999344;28;20777;-83
2022/10/01 08:28:29;;;;;;;68.87;18.50;;;14.20;99.90;;;;;;5017178;28;20420;-84
2022/10/01 08:30:55;;;;;;;69.90;17.67;;;14.10;99.90;;;;;;5017228;28;20404;-85
2022/10/01 08:33:21;;;;;;;69.53;16.37;;;14.10;99.90;;;;;;4999596;28;20174;-85
2022/10/01 08:35:47;;;;;;;69.13;18.30;;;14.20;99.90;;;;;;5017458;28;20416;-85
2022/10/01 08:38:13;;;;;;;69.00;17.87;;;14.20;99.90;;;;;;5016817;28;20639;-84
2022/10/01 08:40:47;;;;;;;66.87;12.03;;;14.20;99.90;;;;;;4998823;28;20172;-84
2022/10/01 08:43:24;;;;;;;67.77;13.40;;;14.30;99.90;;;;;;5016894;28;20423;-85
2022/10/01 08:45:58;;;;;;;68.03;12.33;;;14.30;99.90;;;;;;5016818;28;20413;-85
2022/10/01 08:48:39;;;;;;;66.67;11.83;;;14.30;99.90;;;;;;5016691;28;20500;-84
2022/10/01 08:51:26;;;;;;;67.57;13.30;;;14.30;99.90;;;;;;5016809;28;20373;-85
2022/10/01 08:54:05;;;;;;;69.30;15.07;;;14.40;99.90;;;;;;5016826;28;20472;-85
2022/10/01 08:56:36;;;;;;;71.20;15.57;;;14.70;99.90;;;;;;4998796;28;20409;-85
2022/10/01 08:59:17;;;;;;;70.10;9.90;;;14.80;99.90;;;;;;5016153;28;20440;-85
2022/10/01 09:01:42;;;;;;;67.37;7.00;;;15.00;99.90;;;;;;4999214;28;20405;-84
2022/10/01 09:04:09;;;;;;;65.20;5.30;;;15.10;99.90;;;;;;4998889;28;20982;-85
2022/10/01 09:06:37;;;;;;;65.07;4.67;;;15.10;99.90;;;;;;5016450;28;20228;-85
2022/10/01 09:09:15;;;;;;;65.70;4.87;;;15.10;99.90;;;;;;5016336;28;20471;-84
2022/10/01 09:12:02;;;;;;;65.10;5.30;;;15.10;99.90;;;;;;4999147;28;20405;-84
2022/10/01 09:14:33;;;;;;;66.03;5.00;;;15.20;99.90;;;;;;5016054;28;20389;-83
2022/10/01 09:17:42;;;;;;;64.40;5.03;;;15.20;99.90;;;;;;5016033;28;20409;-84
2022/10/01 09:20:17;;;;;;;66.17;5.50;;;15.10;99.90;;;;;;4965445;28;20847;-85
2022/10/01 09:23:11;;;;;;;65.80;6.50;;;15.10;99.90;;;;;;5014983;28;21037;-86
2022/10/01 09:25:37;;;;;;;66.20;7.40;;;15.10;99.90;;;;;;5015530;28;20618;-85
2022/10/01 09:28:19;;;;;;;65.60;5.67;;;15.20;99.90;;;;;;5016440;28;20413;-85
2022/10/01 09:30:56;;;;;;;66.07;9.43;;;15.30;99.90;;;;;;5015993;28;20411;-84
2022/10/01 09:33:35;;;;;;;66.80;6.03;;;15.40;99.90;;;;;;5015939;28;20488;-84
2022/10/01 09:36:13;;;;;;;65.17;4.70;;;15.40;99.90;;;;;;5016195;28;20475;-84
2022/10/01 09:38:46;;;;;;;64.60;4.20;;;15.50;99.90;;;;;;5015722;28;20417;-84
2022/10/01 09:41:13;;;;;;;64.57;4.93;;;15.50;99.90;;;;;;5015985;28;20389;-85
2022/10/01 09:43:41;;;;;;;66.80;4.60;;;15.60;99.90;;;;;;4998254;28;21061;-85
2022/10/01 09:46:13;;;;;;;65.73;4.30;;;15.60;99.90;;;;;;5016015;28;20401;-84
2022/10/01 09:48:59;;;;;;;69.07;5.00;;;15.80;99.90;;;;;;5016096;28;20424;-85
2022/10/01 09:51:55;;;;;;;66.13;4.30;;;15.90;99.90;;;;;;5016546;28;20900;-85
2022/10/01 09:54:32;;;;;;;68.60;5.17;;;16.10;99.90;;;;;;5019046;28;20407;-85
2022/10/01 09:57:12;;;;;;;67.27;3.90;;;16.50;99.90;;;;;;5019299;28;20900;-85
2022/10/01 10:00:09;;;;;;;65.80;4.70;;;16.60;99.90;;;;;;5019498;28;20426;-84
2022/10/01 10:02:40;;;;;;;65.83;4.07;;;16.60;99.90;;;;;;5001171;28;20519;-85
2022/10/01 10:05:16;;;;;;;67.10;6.07;;;16.70;99.90;;;;;;5019671;28;20469;-84
2022/10/01 10:07:50;;;;;;;64.07;4.30;;;16.90;99.90;;;;;;5019151;28;20413;-85
2022/10/01 10:10:20;;;;;;;64.70;4.40;;;17.10;99.90;;;;;;5019092;28;20408;-85
2022/10/01 10:12:47;;;;;;;64.57;4.13;;;17.20;99.90;;;;;;5000922;28;20440;-85
2022/10/01 10:15:17;;;;;;;69.13;4.53;;;17.30;99.90;;;;;;5018931;28;20419;-84
2022/10/01 10:17:48;;;;;;;64.40;4.40;;;17.40;99.90;;;;;;5018473;28;20847;-85
2022/10/01 10:20:38;;;;;;;65.67;4.00;;;17.70;99.90;;;;;;5018652;28;20399;-84
2022/10/01 10:23:19;;;;;;;66.83;4.30;;;17.80;99.90;;;;;;5018814;28;20453;-85
2022/10/01 10:26:01;;;;;;;66.93;4.00;;;17.80;99.90;;;;;;5018724;28;20455;-85
2022/10/01 10:28:40;;;;;;;68.03;4.03;;;17.70;99.90;;;;;;5018373;28;20472;-85
2022/10/01 10:31:38;;;;;;;67.90;4.27;;;17.50;99.90;;;;;;5001547;28;20391;-85
2022/10/01 10:34:12;;;;;;;67.63;4.00;;;17.30;99.90;;;;;;5012372;28;20447;-86
2022/10/01 10:36:39;;;;;;;73.53;4.93;;;17.30;99.90;;;;;;5000756;28;20926;-85
2022/10/01 10:39:13;;;;;;;66.90;4.77;;;17.30;99.90;;;;;;5017852;28;20856;-85
2022/10/01 10:41:45;;;;;;;66.97;5.40;;;17.30;99.90;;;;;;5000132;28;20462;-85
2022/10/01 10:44:15;;;;;;;66.77;5.17;;;17.40;99.90;;;;;;5000508;28;20451;-83
2022/10/01 10:46:43;;;;;;;72.90;6.10;;;17.70;99.90;;;;;;5018700;28;20905;-85
2022/10/01 10:49:20;;;;;;;66.37;5.90;;;17.90;99.90;;;;;;5017472;28;20981;-85
2022/10/01 10:52:28;;;;;;;69.47;8.50;;;17.90;99.90;;;;;;5000854;28;20454;-85
2022/10/01 10:54:55;;;;;;;66.40;5.47;;;17.90;99.90;;;;;;5017142;28;20389;-85
2022/10/01 10:57:33;;;;;;;68.43;6.80;;;17.70;99.90;;;;;;5000046;28;20462;-84
2022/10/01 11:00:17;;;;;;;70.70;6.90;;;17.60;99.90;;;;;;5107970;22;20576;-83
2022/10/01 11:03:04;;;;;;;68.70;7.13;;;17.40;99.90;;;;;;5045612;28;20978;-85
2022/10/01 11:05:31;;;;;;;70.97;6.90;;;17.30;99.90;;;;;;5045797;28;20436;-83
2022/10/01 11:08:03;;;;;;;72.77;8.03;;;17.20;99.90;;;;;;5027282;28;20494;-83
2022/10/01 11:11:05;;;;;;;68.90;7.50;;;17.10;99.90;;;;;;5045100;28;20820;-83
2022/10/01 11:13:59;;;;;;;67.50;7.53;;;17.10;99.90;;;;;;5046114;28;20388;-83
2022/10/01 11:16:43;;;;;;;71.17;8.17;;;17.00;99.90;;;;;;5044114;28;20456;-83
2022/10/01 11:19:50;;;;;;;67.10;8.67;;;17.00;99.90;;;;;;5043165;28;20430;-83
2022/10/01 11:23:00;;;;;;;71.70;9.57;;;17.00;99.90;;;;;;5039250;28;20410;-83
2022/10/01 11:25:42;;;;;;;69.17;8.17;;;17.30;99.90;;;;;;5000899;28;20459;-83
2022/10/01 11:28:45;;;;;;;72.50;8.50;;;17.50;99.90;;;;;;4987551;28;20454;-83
2022/10/01 11:31:21;;;;;;;74.47;12.60;;;17.70;99.90;;;;;;5039315;28;20404;-83
2022/10/01 11:34:30;;;;;;;72.20;10.50;;;17.90;96.40;;;;;;5027074;28;20402;-83
2022/10/01 11:37:27;;;;;;;74.57;7.17;;;17.90;78.70;;;;;;5044207;28;20745;-83
2022/10/01 11:39:57;;;;;;;68.40;6.17;;;17.90;85.60;;;;;;5027093;28;20412;-83
2022/10/01 11:42:33;;;;;;;70.67;7.20;;;17.90;81.60;;;;;;5044838;28;20428;-83
2022/10/01 11:45:06;;;;;;;69.40;7.63;;;17.90;89.90;;;;;;5045187;28;20925;-83
2022/10/01 11:47:46;;;;;;;72.00;7.10;;;18.10;93.00;;;;;;5044485;28;20404;-83
2022/10/01 11:50:35;;;;;;;67.37;7.73;;;18.40;93.00;;;;;;5043562;28;20403;-84
2022/10/01 11:53:16;;;;;;;72.27;9.33;;;18.00;99.90;;;;;;5041980;28;20410;-84
2022/10/01 11:58:50;;;;;;;68.27;9.70;;;17.00;99.90;;;;;;5042322;28;20989;-84
2022/10/01 12:01:34;;;;;;;68.93;9.80;;;17.00;99.90;;;;;;5042748;28;20434;-84
2022/10/01 12:04:31;;;;;;;72.50;13.23;;;17.20;99.90;;;;;;5042097;28;20439;-83
2022/10/01 12:07:04;;;;;;;68.27;8.20;;;17.60;99.90;;;;;;5042462;28;20380;-84
2022/10/01 12:09:41;;;;;;;71.70;12.20;;;17.80;99.90;;;;;;5042449;28;20454;-83
2022/10/01 12:12:19;;;;;;;67.97;11.63;;;17.90;99.90;;;;;;5042400;28;20395;-83
2022/10/01 12:15:09;;;;;;;69.17;10.13;;;18.00;99.90;;;;;;5041669;28;20448;-83
2022/10/01 12:17:39;;;;;;;69.10;14.13;;;18.00;99.90;;;;;;5042315;28;20438;-83
2022/10/01 12:20:28;;;;;;;72.67;19.80;;;17.60;99.90;;;;;;5042697;28;20909;-84
2022/10/01 12:22:57;;;;;;;75.40;17.47;;;17.50;99.90;;;;;;5041799;28;20444;-84
2022/10/01 12:25:28;;;;;;;72.90;19.67;;;17.30;99.90;;;;;;5039500;28;20454;-84
2022/10/01 12:28:12;;;;;;;70.80;13.67;;;17.40;99.90;;;;;;5022577;28;20424;-84
2022/10/01 12:30:53;;;;;;;69.23;14.10;;;17.20;99.90;;;;;;5040403;28;20394;-84
2022/10/01 12:33:22;;;;;;;71.50;15.37;;;16.70;99.90;;;;;;5043486;28;20402;-85
2022/10/01 12:36:03;;;;;;;70.47;14.87;;;16.50;99.90;;;;;;5043731;28;20474;-84
2022/10/01 12:38:54;;;;;;;73.37;15.10;;;16.30;99.90;;;;;;5043602;28;20984;-84
2022/10/01 12:41:48;;;;;;;72.67;17.03;;;16.30;99.90;;;;;;5028341;28;20424;-84
2022/10/01 12:44:22;;;;;;;71.80;18.10;;;16.30;99.90;;;;;;5028499;28;20457;-84
2022/10/01 12:47:23;;;;;;;70.87;16.40;;;16.20;99.90;;;;;;5046090;28;20383;-84
2022/10/01 12:50:06;;;;;;;69.17;17.97;;;16.20;99.90;;;;;;5028181;28;20414;-84
2022/10/01 12:52:49;;;;;;;68.97;16.80;;;16.30;99.90;;;;;;5045417;28;20400;-84
2022/10/01 12:55:33;;;;;;;67.90;12.23;;;16.30;99.90;;;;;;5045055;28;20413;-84
2022/10/01 12:58:14;;;;;;;68.73;16.53;;;16.30;99.90;;;;;;5043909;28;20429;-84
2022/10/01 13:01:00;;;;;;;73.80;18.10;;;16.20;99.90;;;;;;5045439;28;20388;-84